Irving North's Hourly Summary for Thursday, March 16, 2017
Hour Temp
(f)
RH
(%)
Solar Rad.
(MJ/m2)
Rainfall
(in)
Wind
(mph)
3/16/2017 12:00 AM 56 58 0 0 6.22
3/16/2017 1:00 AM 54 65 0 0 4.74
3/16/2017 2:00 AM 53 68 0 0 5.8
3/16/2017 3:00 AM 53 73 0 0 6.14
3/16/2017 4:00 AM 53 79 0 0 5.91
3/16/2017 5:00 AM 55 86 0 0 7.2
3/16/2017 6:00 AM 56 88 0 0 7.1
3/16/2017 7:00 AM 57 87 0.01 0 7.13
3/16/2017 8:00 AM 58 87 0.1 0 7.77
3/16/2017 9:00 AM 59 84 0.31 0 7.61
3/16/2017 10:00 AM 60 84 0.27 0 6.44
3/16/2017 11:00 AM 60 82 0.4 0 7.94
3/16/2017 12:00 PM 62 77 0.55 0 6.53
3/16/2017 1:00 PM 64 73 0.84 0 7.77
3/16/2017 2:00 PM 66 70 0.83 0 8.63
3/16/2017 3:00 PM 69 68 1.06 0 9.93
3/16/2017 4:00 PM 69 68 0.65 0 9.71
3/16/2017 5:00 PM 71 62 0.8 0 10.37
3/16/2017 6:00 PM 72 61 0.49 0 10.5
3/16/2017 7:00 PM 70 66 0.05 0 8.37
3/16/2017 8:00 PM 69 69 0 0 6.92
3/16/2017 9:00 PM 69 71 0 0 6.94
3/16/2017 10:00 PM 68 72 0 0 6.3
3/16/2017 11:00 PM 66 78 0 0 5.9
Data Summary 62 74 6.36 0.00 7.41